createdAt,value
2018-04-24T00:02:01.588Z,17.50
2018-04-24T00:04:29.059Z,17.50
2018-04-24T00:06:56.518Z,17.50
2018-04-24T00:09:24.006Z,17.50
2018-04-24T00:11:51.497Z,17.50
2018-04-24T00:14:18.986Z,17.50
2018-04-24T00:16:46.430Z,17.50
2018-04-24T00:19:15.382Z,17.40
2018-04-24T00:21:42.859Z,17.40
2018-04-24T00:24:10.341Z,17.40
2018-04-24T00:26:38.549Z,17.40
2018-04-24T00:29:06.029Z,17.40
2018-04-24T00:31:33.489Z,17.40
2018-04-24T00:34:00.957Z,17.40
2018-04-24T00:36:28.421Z,17.30
2018-04-24T00:38:55.891Z,17.30
2018-04-24T00:41:23.328Z,17.30
2018-04-24T00:43:50.810Z,17.30
2018-04-24T00:46:18.253Z,17.20
2018-04-24T00:48:45.733Z,17.20
2018-04-24T00:51:13.189Z,17.20
2018-04-24T00:53:40.749Z,17.20
2018-04-24T00:56:08.198Z,17.20
2018-04-24T00:58:35.715Z,17.20
2018-04-24T01:01:03.870Z,17.20
2018-04-24T01:03:31.356Z,17.20
2018-04-24T01:05:58.818Z,17.10
2018-04-24T01:08:26.275Z,17.10
2018-04-24T01:10:53.761Z,17.10
2018-04-24T01:13:22.034Z,17.00
2018-04-24T01:15:49.501Z,17.00
2018-04-24T01:18:16.953Z,17.00
2018-04-24T01:20:45.220Z,17.00
2018-04-24T01:23:12.686Z,17.00
2018-04-24T01:25:40.930Z,17.00
2018-04-24T01:28:08.378Z,17.00
2018-04-24T01:30:35.861Z,17.00
2018-04-24T01:33:03.305Z,16.90
2018-04-24T01:35:31.539Z,16.80
2018-04-24T01:37:58.983Z,16.80
2018-04-24T01:40:26.470Z,16.80
2018-04-24T01:42:53.926Z,16.80
2018-04-24T01:45:21.401Z,16.80
2018-04-24T01:47:48.867Z,16.80
2018-04-24T01:50:17.821Z,16.70
2018-04-24T01:52:45.285Z,16.70
2018-04-24T01:55:12.765Z,16.70
2018-04-24T01:57:40.245Z,16.60
2018-04-24T02:00:08.450Z,16.50
2018-04-24T02:02:35.921Z,16.50
2018-04-24T02:05:03.362Z,16.50
2018-04-24T02:07:30.822Z,16.50
2018-04-24T02:09:58.486Z,16.50
2018-04-24T02:12:25.947Z,16.50
2018-04-24T02:14:53.382Z,16.50
2018-04-24T02:17:20.868Z,16.40
2018-04-24T02:19:48.313Z,16.40
2018-04-24T02:22:15.767Z,16.30
2018-04-24T02:24:43.224Z,16.30
2018-04-24T02:27:10.665Z,16.30
2018-04-24T02:29:38.150Z,16.30
2018-04-24T02:32:05.593Z,16.30
2018-04-24T02:34:33.039Z,16.20
2018-04-24T02:37:00.507Z,16.20
2018-04-24T02:39:27.975Z,16.20
2018-04-24T02:41:55.418Z,16.10
2018-04-24T02:44:22.878Z,16.10
2018-04-24T02:46:50.594Z,16.10
2018-04-24T02:49:18.058Z,16.10
2018-04-24T02:51:46.292Z,16.00
2018-04-24T02:54:13.737Z,16.00
2018-04-24T02:56:41.194Z,16.10
2018-04-24T02:59:08.658Z,16.10
2018-04-24T03:01:36.199Z,16.10
2018-04-24T03:04:03.558Z,16.00
2018-04-24T03:06:31.014Z,16.00
2018-04-24T03:08:58.482Z,15.90
2018-04-24T03:11:25.944Z,15.90
2018-04-24T03:13:53.402Z,15.90
2018-04-24T03:16:20.841Z,15.90
2018-04-24T03:18:48.309Z,15.80
2018-04-24T03:21:15.756Z,15.80
2018-04-24T03:23:43.225Z,15.80
2018-04-24T03:26:10.682Z,15.80
2018-04-24T03:28:38.158Z,15.80
2018-04-24T03:31:05.619Z,15.80
2018-04-24T03:33:33.097Z,15.80
2018-04-24T03:36:01.391Z,15.80
2018-04-24T03:38:28.782Z,15.80
2018-04-24T03:40:56.222Z,15.80
2018-04-24T03:43:23.691Z,15.80
2018-04-24T03:45:51.162Z,15.70
2018-04-24T03:48:18.612Z,15.70
2018-04-24T03:50:46.074Z,15.70
2018-04-24T03:53:15.032Z,15.60
2018-04-24T03:55:42.507Z,15.60
2018-04-24T03:58:09.966Z,15.60
2018-04-24T04:00:37.425Z,15.60
2018-04-24T04:03:04.876Z,15.60
2018-04-24T04:05:32.350Z,15.60
2018-04-24T04:07:59.801Z,15.60
2018-04-24T04:10:27.279Z,15.50
2018-04-24T04:12:55.494Z,15.50
2018-04-24T04:15:22.943Z,15.50
2018-04-24T04:18:02.449Z,15.50
2018-04-24T04:20:42.755Z,15.50
2018-04-24T04:23:23.674Z,15.50
2018-04-24T04:25:51.914Z,15.50
2018-04-24T04:28:19.366Z,15.50
2018-04-24T04:30:46.842Z,15.50
2018-04-24T04:33:15.049Z,15.50
2018-04-24T04:35:42.500Z,15.50
2018-04-24T04:38:10.740Z,15.50
2018-04-24T04:40:38.277Z,15.50
2018-04-24T04:43:05.749Z,15.50
2018-04-24T04:45:33.207Z,15.50
2018-04-24T04:48:00.701Z,15.50
2018-04-24T04:50:28.920Z,15.50
2018-04-24T04:52:56.394Z,15.50
2018-04-24T04:55:23.851Z,15.50
2018-04-24T04:57:51.314Z,15.60
2018-04-24T05:00:18.910Z,15.60
2018-04-24T05:02:47.128Z,15.60
2018-04-24T05:05:14.678Z,15.60
2018-04-24T05:07:42.044Z,15.60
2018-04-24T05:10:09.514Z,15.60
2018-04-24T05:12:36.966Z,15.60
2018-04-24T05:15:04.462Z,15.70
2018-04-24T05:17:31.922Z,15.70
2018-04-24T05:20:00.244Z,15.70
2018-04-24T05:22:28.413Z,15.70
2018-04-24T05:24:56.642Z,15.70
2018-04-24T05:27:24.865Z,15.80
2018-04-24T05:29:52.323Z,15.70
2018-04-24T05:32:19.799Z,15.80
2018-04-24T05:34:47.278Z,15.80
2018-04-24T05:37:15.525Z,15.80
2018-04-24T05:39:42.998Z,15.90
2018-04-24T05:42:10.478Z,15.90
2018-04-24T05:44:38.699Z,16.00
2018-04-24T05:47:06.187Z,16.00
2018-04-24T05:49:34.394Z,16.10
2018-04-24T05:52:01.885Z,16.10
2018-04-24T05:54:29.333Z,16.20
2018-04-24T05:56:56.802Z,16.20
2018-04-24T05:59:24.318Z,16.30
2018-04-24T06:01:52.547Z,16.40
2018-04-24T06:04:20.006Z,16.30
2018-04-24T06:06:47.469Z,16.40
2018-04-24T06:09:14.933Z,16.50
2018-04-24T06:11:42.426Z,16.50
2018-04-24T06:14:09.933Z,16.50
2018-04-24T06:16:37.377Z,16.60
2018-04-24T06:19:04.856Z,16.60
2018-04-24T06:21:32.298Z,16.70
2018-04-24T06:23:59.777Z,16.80
2018-04-24T06:26:27.227Z,16.80
2018-04-24T06:28:54.698Z,16.90
2018-04-24T06:31:22.918Z,17.00
2018-04-24T06:33:50.434Z,17.00
2018-04-24T06:36:18.666Z,17.10
2018-04-24T06:38:46.183Z,17.10
2018-04-24T06:41:13.653Z,17.20
2018-04-24T06:43:41.107Z,17.20
2018-04-24T06:46:08.582Z,17.20
2018-04-24T06:48:36.032Z,17.20
2018-04-24T06:51:03.502Z,17.30
2018-04-24T06:53:31.022Z,17.30
2018-04-24T06:55:58.478Z,17.40
2018-04-24T06:58:25.923Z,17.40
2018-04-24T07:00:53.482Z,17.50
2018-04-24T07:03:20.850Z,17.50
2018-04-24T07:05:48.304Z,17.50
2018-04-24T07:08:15.766Z,17.60
2018-04-24T07:10:43.220Z,17.50
2018-04-24T07:13:10.697Z,17.60
2018-04-24T07:15:38.150Z,17.60
2018-04-24T07:18:05.626Z,17.60
2018-04-24T07:20:33.063Z,17.70
2018-04-24T07:23:00.540Z,17.70
2018-04-24T07:25:27.981Z,17.80
2018-04-24T07:27:55.489Z,17.80
2018-04-24T07:30:23.736Z,17.90
2018-04-24T07:32:51.204Z,17.90
2018-04-24T07:35:18.659Z,17.90
2018-04-24T07:37:46.133Z,18.00
2018-04-24T07:40:14.378Z,18.10
2018-04-24T07:42:41.808Z,18.10
2018-04-24T07:45:09.315Z,18.10
2018-04-24T07:47:37.531Z,18.20
2018-04-24T07:50:05.001Z,18.20
2018-04-24T07:52:32.457Z,18.20
2018-04-24T07:54:59.930Z,18.30
2018-04-24T07:57:27.374Z,18.30
2018-04-24T07:59:54.881Z,18.40
2018-04-24T08:02:23.094Z,18.50
2018-04-24T08:04:50.578Z,18.50
2018-04-24T08:07:18.135Z,18.50
2018-04-24T08:09:45.700Z,18.60
2018-04-24T08:12:13.947Z,18.60
2018-04-24T08:14:41.396Z,18.60
2018-04-24T08:17:08.857Z,18.60
2018-04-24T08:19:36.343Z,18.60
2018-04-24T08:22:03.807Z,18.70
2018-04-24T08:24:31.246Z,18.80
2018-04-24T08:26:58.718Z,18.90
2018-04-24T08:29:26.169Z,18.80
2018-04-24T08:31:53.658Z,18.80
2018-04-24T08:34:21.884Z,18.90
2018-04-24T08:36:49.380Z,18.90
2018-04-24T08:39:17.606Z,19.10
2018-04-24T08:41:45.073Z,19.10
2018-04-24T08:44:12.513Z,19.10
2018-04-24T08:46:39.970Z,19.10
2018-04-24T08:49:07.446Z,19.20
2018-04-24T08:51:34.919Z,19.20
2018-04-24T08:54:02.873Z,19.20
2018-04-24T08:56:30.394Z,19.30
2018-04-24T08:58:57.787Z,19.30
2018-04-24T09:01:25.247Z,19.40
2018-04-24T09:03:52.742Z,19.50
2018-04-24T09:06:20.962Z,19.70
2018-04-24T09:08:48.448Z,19.70
2018-04-24T09:11:16.700Z,19.80
2018-04-24T09:13:44.182Z,19.80
2018-04-24T09:16:12.406Z,19.80
2018-04-24T09:18:39.891Z,19.80
2018-04-24T09:21:07.371Z,19.70
2018-04-24T09:23:35.587Z,19.70
2018-04-24T09:26:03.073Z,19.70
2018-04-24T09:28:30.554Z,19.60
2018-04-24T09:30:58.026Z,19.60
2018-04-24T09:33:26.293Z,19.60
2018-04-24T09:35:53.741Z,19.60
2018-04-24T09:38:21.198Z,19.70
2018-04-24T09:40:49.441Z,19.70
2018-04-24T09:43:16.890Z,19.70
2018-04-24T09:45:44.355Z,19.70
2018-04-24T09:48:11.826Z,19.70
2018-04-24T09:50:39.299Z,19.70
2018-04-24T09:53:07.524Z,19.60
2018-04-24T09:55:34.998Z,19.60
2018-04-24T09:58:02.450Z,19.60
2018-04-24T10:00:35.627Z,19.70
2018-04-24T10:03:03.066Z,19.70
2018-04-24T10:05:30.514Z,19.70
2018-04-24T10:07:57.978Z,19.70
2018-04-24T10:10:25.447Z,19.80
2018-04-24T10:12:52.920Z,19.80
2018-04-24T10:15:20.354Z,19.80
2018-04-24T10:17:47.840Z,19.90
2018-04-24T10:20:15.316Z,20.00
2018-04-24T10:22:42.806Z,20.10
2018-04-24T10:25:10.266Z,20.20
2018-04-24T10:27:37.737Z,20.40
2018-04-24T10:30:05.193Z,20.60
2018-04-24T10:32:32.702Z,20.70
2018-04-24T10:35:00.161Z,20.70
2018-04-24T10:37:27.656Z,20.80
2018-04-24T10:39:55.846Z,20.80
2018-04-24T10:42:23.336Z,20.80
2018-04-24T10:44:50.825Z,20.90
2018-04-24T10:47:19.115Z,21.30
2018-04-24T10:49:46.586Z,21.20
2018-04-24T10:52:14.065Z,21.40
2018-04-24T10:54:41.532Z,21.40
2018-04-24T10:57:08.981Z,21.50
2018-04-24T10:59:36.445Z,21.60
2018-04-24T11:02:04.681Z,21.60
2018-04-24T11:04:32.201Z,21.60
2018-04-24T11:06:59.668Z,21.70
2018-04-24T11:09:27.901Z,22.00
2018-04-24T11:11:55.494Z,22.00
2018-04-24T11:14:22.903Z,22.10
2018-04-24T11:16:50.365Z,22.20
2018-04-24T11:19:17.870Z,22.30
2018-04-24T11:21:46.079Z,22.40
2018-04-24T11:24:13.594Z,22.40
2018-04-24T11:26:41.058Z,22.30
2018-04-24T11:29:09.259Z,22.50
2018-04-24T11:31:36.760Z,22.50
2018-04-24T11:34:04.222Z,22.60
2018-04-24T11:36:31.686Z,22.70
2018-04-24T11:38:59.163Z,22.80
2018-04-24T11:41:27.465Z,23.00
2018-04-24T11:43:54.931Z,23.00
2018-04-24T11:46:23.148Z,23.40
2018-04-24T11:48:50.620Z,23.40
2018-04-24T11:51:18.857Z,23.40
2018-04-24T11:53:46.306Z,23.40
2018-04-24T11:56:13.810Z,23.50
2018-04-24T11:58:42.052Z,23.60
2018-04-24T12:01:09.536Z,23.60
2018-04-24T12:03:37.757Z,23.60
2018-04-24T12:06:05.260Z,23.60
2018-04-24T12:08:32.695Z,23.50
2018-04-24T12:11:00.166Z,23.50
2018-04-24T12:13:27.644Z,23.40
2018-04-24T12:15:55.885Z,23.30
2018-04-24T12:18:23.363Z,23.30
2018-04-24T12:20:51.582Z,23.20
2018-04-24T12:23:19.073Z,23.20
2018-04-24T12:25:46.501Z,23.20
2018-04-24T12:28:13.996Z,23.20
2018-04-24T12:30:41.453Z,23.20
2018-04-24T12:33:08.890Z,23.20
2018-04-24T12:35:36.398Z,23.20
2018-04-24T12:38:03.843Z,23.20
2018-04-24T12:40:31.330Z,23.20
2018-04-24T12:42:58.821Z,23.30
2018-04-24T12:45:26.297Z,23.40
2018-04-24T12:47:53.752Z,23.40
2018-04-24T12:50:21.234Z,23.40
2018-04-24T12:52:48.679Z,23.40
2018-04-24T12:55:16.904Z,23.60
2018-04-24T12:57:44.375Z,23.50
2018-04-24T13:00:11.875Z,23.50
2018-04-24T13:02:39.327Z,23.50
2018-04-24T13:05:06.806Z,23.50
2018-04-24T13:07:34.273Z,23.50
2018-04-24T13:10:02.542Z,23.50
2018-04-24T13:12:30.010Z,23.60
2018-04-24T13:14:57.461Z,23.60
2018-04-24T13:17:25.360Z,23.70
2018-04-24T13:19:52.805Z,23.80
2018-04-24T13:22:20.274Z,24.00
2018-04-24T13:24:47.731Z,24.30
2018-04-24T13:27:16.753Z,24.30
2018-04-24T13:29:44.985Z,24.40
2018-04-24T13:32:12.458Z,24.40
2018-04-24T13:34:39.894Z,24.60
2018-04-24T13:37:07.390Z,24.60
2018-04-24T13:39:35.614Z,24.60
2018-04-24T13:42:03.074Z,24.60
2018-04-24T13:44:30.541Z,24.80
2018-04-24T13:46:58.009Z,25.00
2018-04-24T13:49:25.479Z,25.20
2018-04-24T13:51:52.927Z,25.20
2018-04-24T13:54:20.410Z,25.30
2018-04-24T13:56:48.657Z,25.30
2018-04-24T13:59:16.140Z,25.30
2018-04-24T14:01:44.350Z,25.50
2018-04-24T14:04:11.810Z,25.50
2018-04-24T14:06:39.282Z,25.40
2018-04-24T14:09:06.778Z,25.40
2018-04-24T14:11:35.014Z,25.50
2018-04-24T14:14:03.039Z,25.50
2018-04-24T14:16:31.269Z,25.80
2018-04-24T14:18:58.750Z,25.70
2018-04-24T14:21:26.280Z,25.70
2018-04-24T14:23:53.677Z,25.60
2018-04-24T14:26:21.162Z,25.60
2018-04-24T14:28:48.637Z,25.50
2018-04-24T14:31:16.130Z,25.50
2018-04-24T14:33:44.355Z,25.80
2018-04-24T14:36:11.818Z,25.80
2018-04-24T14:38:39.279Z,26.00
2018-04-24T14:41:06.750Z,26.10
2018-04-24T14:43:34.218Z,26.20
2018-04-24T14:46:01.679Z,26.30
2018-04-24T14:48:29.930Z,26.30
2018-04-24T14:50:57.398Z,26.30
2018-04-24T14:53:24.868Z,26.30
2018-04-24T14:55:52.353Z,26.40
2018-04-24T14:58:19.866Z,26.30
2018-04-24T15:00:47.279Z,26.20
2018-04-24T15:03:14.725Z,26.20
2018-04-24T15:05:42.198Z,26.10
2018-04-24T15:08:09.642Z,26.20
2018-04-24T15:10:37.126Z,26.10
2018-04-24T15:13:04.658Z,26.00
2018-04-24T15:15:32.123Z,25.80
2018-04-24T15:17:59.604Z,25.60
2018-04-24T15:20:27.114Z,25.40
2018-04-24T15:22:55.362Z,25.50
2018-04-24T15:25:22.819Z,25.50
2018-04-24T15:27:50.312Z,25.30
2018-04-24T15:30:17.770Z,25.20
2018-04-24T15:32:45.231Z,25.10
2018-04-24T15:35:12.722Z,25.30
2018-04-24T15:37:40.177Z,25.40
2018-04-24T15:40:07.670Z,25.60
2018-04-24T15:42:35.886Z,25.80
2018-04-24T15:45:03.363Z,25.80
2018-04-24T15:47:30.802Z,25.90
2018-04-24T15:49:58.290Z,26.00
2018-04-24T15:52:27.268Z,25.90
2018-04-24T15:54:54.801Z,26.00
2018-04-24T15:57:22.206Z,25.80
2018-04-24T15:59:49.658Z,25.70
2018-04-24T16:02:17.102Z,25.70
2018-04-24T16:04:44.605Z,25.70
2018-04-24T16:07:12.118Z,25.70
2018-04-24T16:09:41.095Z,25.80
2018-04-24T16:12:08.570Z,25.80
2018-04-24T16:14:36.034Z,25.90
2018-04-24T16:17:03.508Z,25.90
2018-04-24T16:19:31.902Z,25.60
2018-04-24T16:21:59.318Z,25.60
2018-04-24T16:24:26.765Z,25.40
2018-04-24T16:26:54.259Z,25.40
2018-04-24T16:29:22.493Z,25.20
2018-04-24T16:31:50.018Z,25.20
2018-04-24T16:34:17.424Z,25.10
2018-04-24T16:36:44.904Z,25.00
2018-04-24T16:39:13.135Z,24.90
2018-04-24T16:41:40.582Z,24.80
2018-04-24T16:44:08.045Z,24.80
2018-04-24T16:46:35.521Z,24.70
2018-04-24T16:49:02.997Z,24.60
2018-04-24T16:51:31.214Z,24.50
2018-04-24T16:53:58.692Z,24.40
2018-04-24T16:56:26.155Z,24.40
2018-04-24T16:58:53.683Z,24.30
2018-04-24T17:01:21.140Z,24.30
2018-04-24T17:03:48.697Z,24.30
2018-04-24T17:06:16.197Z,24.20
2018-04-24T17:08:43.618Z,24.20
2018-04-24T17:11:11.118Z,24.10
2018-04-24T17:13:38.804Z,24.10
2018-04-24T17:16:06.276Z,24.10
2018-04-24T17:18:33.744Z,24.00
2018-04-24T17:21:01.227Z,24.00
2018-04-24T17:23:28.673Z,24.00
2018-04-24T17:25:56.221Z,23.90
2018-04-24T17:28:23.606Z,23.90
2018-04-24T17:30:51.098Z,23.80
2018-04-24T17:33:18.662Z,23.80
2018-04-24T17:35:46.234Z,23.70
2018-04-24T17:38:14.530Z,23.70
2018-04-24T17:40:42.014Z,23.60
2018-04-24T17:43:09.505Z,23.60
2018-04-24T17:45:36.967Z,23.60
2018-04-24T17:48:04.448Z,23.60
2018-04-24T17:50:31.892Z,23.60
2018-04-24T17:52:59.381Z,23.50
2018-04-24T17:55:26.845Z,23.50
2018-04-24T17:57:54.382Z,23.40
2018-04-24T18:00:21.833Z,23.40
2018-04-24T18:02:49.330Z,23.30
2018-04-24T18:05:16.794Z,23.30
2018-04-24T18:07:44.292Z,23.20
2018-04-24T18:10:11.756Z,23.20
2018-04-24T18:12:39.268Z,23.10
2018-04-24T18:15:07.574Z,23.10
2018-04-24T18:17:35.046Z,23.10
2018-04-24T18:20:02.542Z,23.00
2018-04-24T18:22:30.783Z,22.90
2018-04-24T18:24:58.270Z,22.90
2018-04-24T18:27:25.755Z,22.80
2018-04-24T18:29:54.003Z,22.70
2018-04-24T18:32:21.467Z,22.70
2018-04-24T18:34:49.726Z,22.50
2018-04-24T18:37:17.209Z,22.50
2018-04-24T18:39:45.467Z,22.30
2018-04-24T18:42:12.951Z,22.30
2018-04-24T18:44:41.211Z,22.20
2018-04-24T18:47:09.511Z,22.10
2018-04-24T18:49:37.038Z,22.10
2018-04-24T18:52:04.501Z,22.10
2018-04-24T18:54:32.736Z,22.10
2018-04-24T18:57:00.235Z,22.10
2018-04-24T18:59:28.574Z,22.20
2018-04-24T19:01:55.976Z,22.10
2018-04-24T19:04:24.209Z,22.10
2018-04-24T19:06:51.683Z,22.00
2018-04-24T19:09:19.151Z,22.00
2018-04-24T19:11:47.386Z,22.00
2018-04-24T19:14:20.595Z,22.00
2018-04-24T19:16:48.135Z,21.90
2018-04-24T19:19:21.294Z,21.80
2018-04-24T19:21:48.791Z,21.70
2018-04-24T19:24:21.959Z,21.60
2018-04-24T19:26:49.424Z,21.40
2018-04-24T19:29:16.930Z,21.40
2018-04-24T19:31:50.956Z,21.50
2018-04-24T19:34:18.464Z,21.40
2018-04-24T19:36:45.934Z,21.30
2018-04-24T19:39:19.787Z,21.30
2018-04-24T19:41:50.911Z,21.20
2018-04-24T19:44:19.194Z,21.00
2018-04-24T19:46:46.739Z,21.00
2018-04-24T19:49:20.825Z,20.80
2018-04-24T19:51:48.206Z,20.80
2018-04-24T19:54:16.459Z,20.80
2018-04-24T19:56:43.912Z,20.80
2018-04-24T19:59:11.585Z,20.80
2018-04-24T20:01:39.839Z,20.80
2018-04-24T20:04:07.412Z,20.80
2018-04-24T20:06:34.898Z,20.70
2018-04-24T20:09:02.354Z,20.70
2018-04-24T20:11:30.639Z,20.70
2018-04-24T20:13:58.103Z,20.70
2018-04-24T20:16:25.607Z,20.80
2018-04-24T20:18:53.074Z,20.80
2018-04-24T20:21:20.625Z,20.90
2018-04-24T20:23:48.154Z,20.90
2018-04-24T20:26:15.624Z,20.90
2018-04-24T20:28:43.119Z,20.90
2018-04-24T20:31:11.374Z,20.90
2018-04-24T20:33:38.836Z,20.80
2018-04-24T20:36:06.333Z,20.70
2018-04-24T20:38:33.861Z,20.70
2018-04-24T20:41:01.310Z,20.70
2018-04-24T20:43:29.589Z,20.50
2018-04-24T20:45:57.819Z,20.50
2018-04-24T20:48:25.309Z,20.50
2018-04-24T20:50:52.782Z,20.50
2018-04-24T20:53:21.670Z,20.70
2018-04-24T20:55:49.068Z,20.60
2018-04-24T20:58:16.558Z,20.70
2018-04-24T21:00:44.086Z,20.70
2018-04-24T21:03:11.480Z,20.60
2018-04-24T21:05:38.987Z,20.50
2018-04-24T21:08:06.447Z,20.40
2018-04-24T21:10:33.940Z,20.40
2018-04-24T21:13:01.401Z,20.30
2018-04-24T21:15:28.890Z,20.40
2018-04-24T21:17:57.123Z,20.20
2018-04-24T21:20:24.661Z,20.20
2018-04-24T21:22:52.144Z,20.20
2018-04-24T21:25:19.637Z,20.20
2018-04-24T21:27:47.086Z,20.20
2018-04-24T21:30:14.558Z,20.10
2018-04-24T21:32:42.053Z,20.10
2018-04-24T21:35:09.588Z,20.00
2018-04-24T21:37:37.025Z,20.00
2018-04-24T21:40:04.492Z,20.10
2018-04-24T21:42:31.957Z,20.10
2018-04-24T21:44:59.454Z,20.00
2018-04-24T21:47:26.903Z,19.90
2018-04-24T21:49:54.366Z,19.90
2018-04-24T21:52:21.847Z,19.80
2018-04-24T21:54:50.087Z,19.70
2018-04-24T21:57:17.599Z,19.70
2018-04-24T21:59:45.060Z,19.70
2018-04-24T22:02:12.523Z,19.70
2018-04-24T22:04:40.000Z,19.60
2018-04-24T22:07:07.489Z,19.60
2018-04-24T22:09:35.710Z,19.70
2018-04-24T22:12:03.203Z,19.70
2018-04-24T22:14:30.670Z,19.70
2018-04-24T22:16:58.152Z,19.70
2018-04-24T22:19:26.381Z,19.80
2018-04-24T22:21:53.853Z,19.80
2018-04-24T22:24:21.339Z,19.70
2018-04-24T22:26:49.560Z,19.70
2018-04-24T22:29:17.033Z,19.70
2018-04-24T22:31:44.509Z,19.70
2018-04-24T22:34:11.954Z,19.70
2018-04-24T22:36:39.406Z,19.70
2018-04-24T22:39:06.892Z,19.70
2018-04-24T22:41:35.137Z,19.70
2018-04-24T22:44:03.066Z,19.70
2018-04-24T22:46:30.527Z,19.70
2018-04-24T22:48:58.003Z,19.80
2018-04-24T22:51:25.500Z,19.90
2018-04-24T22:53:53.745Z,19.90
2018-04-24T22:56:21.196Z,19.90
2018-04-24T22:58:48.677Z,19.90
2018-04-24T23:01:16.902Z,19.90
2018-04-24T23:03:44.401Z,19.90
2018-04-24T23:06:11.903Z,20.00
2018-04-24T23:08:39.363Z,20.00
2018-04-24T23:11:18.907Z,20.00
2018-04-24T23:13:58.301Z,20.00
2018-04-24T23:16:38.377Z,20.00
2018-04-24T23:19:17.843Z,20.00
2018-04-24T23:21:44.886Z,19.90
2018-04-24T23:24:12.282Z,19.90
2018-04-24T23:26:39.757Z,19.80
2018-04-24T23:29:08.008Z,19.70
2018-04-24T23:31:35.461Z,19.70
2018-04-24T23:34:02.929Z,19.70
2018-04-24T23:36:30.492Z,19.60
2018-04-24T23:38:58.735Z,19.60
2018-04-24T23:41:26.198Z,19.60
2018-04-24T23:43:53.657Z,19.60
2018-04-24T23:46:21.129Z,19.70
2018-04-24T23:48:48.589Z,19.60
2018-04-24T23:51:16.062Z,19.60
2018-04-24T23:53:44.288Z,19.50
2018-04-24T23:56:11.751Z,19.50
2018-04-24T23:58:39.215Z,19.50
